createdAt,value
2018-11-20T00:01:02.118Z,24.37
2018-11-20T00:03:52.814Z,25.07
2018-11-20T00:06:45.666Z,26.23
2018-11-20T00:09:36.069Z,26.47
2018-11-20T00:26:34.023Z,26.13
2018-11-20T00:29:12.234Z,24.87
2018-11-20T00:32:06.306Z,25.43
2018-11-20T00:34:54.753Z,26.67
2018-11-20T00:37:47.715Z,25.63
2018-11-20T00:40:41.585Z,25.63
2018-11-20T00:46:22.352Z,25.70
2018-11-20T00:49:12.727Z,25.70
2018-11-20T00:58:01.564Z,25.23
2018-11-20T01:00:52.783Z,24.33
2018-11-20T01:03:45.257Z,23.70
2018-11-20T01:06:35.852Z,22.77
2018-11-20T01:09:28.879Z,24.53
2018-11-20T01:12:24.913Z,25.10
2018-11-20T01:18:03.364Z,22.50
2018-11-20T01:26:23.388Z,22.67
2018-11-20T01:44:42.722Z,22.23
2018-11-20T01:47:33.624Z,22.70
2018-11-20T01:50:22.893Z,24.00
2018-11-20T01:53:09.812Z,23.67
2018-11-20T01:56:00.094Z,24.43
2018-11-20T01:58:43.372Z,23.43
2018-11-20T02:01:38.018Z,24.77
2018-11-20T03:18:11.604Z,24.83
2018-11-20T03:23:49.354Z,24.13
2018-11-20T03:26:37.349Z,24.30
2018-11-20T04:17:05.747Z,26.73
2018-11-20T05:23:59.236Z,22.80
2018-11-20T05:35:20.357Z,20.47
2018-11-20T05:38:12.320Z,19.67
2018-11-20T05:41:01.896Z,21.03
2018-11-20T05:43:50.229Z,19.33
2018-11-20T05:46:39.842Z,18.17
2018-11-20T05:49:18.854Z,19.73
2018-11-20T05:52:08.722Z,20.73
2018-11-20T05:55:03.826Z,18.40
2018-11-20T06:09:45.915Z,22.10
2018-11-20T06:21:00.515Z,20.33
2018-11-20T06:23:44.555Z,19.50
2018-11-20T06:26:33.415Z,18.57
2018-11-20T06:29:22.048Z,21.43
2018-11-20T06:32:00.687Z,19.93
2018-11-20T06:34:49.408Z,19.63
2018-11-20T06:37:38.706Z,19.20
2018-11-20T06:40:28.286Z,19.90
2018-11-20T06:43:17.754Z,21.13
2018-11-20T06:46:06.507Z,20.93
2018-11-20T06:49:01.376Z,24.80
2018-11-20T06:51:49.754Z,25.23
2018-11-20T06:54:38.513Z,24.77
2018-11-20T06:57:27.288Z,31.30
2018-11-20T07:00:15.819Z,28.80
2018-11-20T07:03:04.469Z,24.13
2018-11-20T07:05:53.328Z,26.07
2018-11-20T07:08:41.930Z,25.60
2018-11-20T07:11:30.941Z,25.27
2018-11-20T07:14:21.825Z,31.13
2018-11-20T07:17:10.808Z,27.90
2018-11-20T07:19:59.565Z,25.80
2018-11-20T07:22:48.351Z,32.70
2018-11-20T07:25:36.768Z,32.17
2018-11-20T07:28:25.628Z,28.37
2018-11-20T07:31:14.185Z,26.80
2018-11-20T07:33:56.484Z,27.93
2018-11-20T07:36:45.520Z,31.17
2018-11-20T07:39:34.304Z,25.17
2018-11-20T07:42:22.897Z,23.83
2018-11-20T07:45:11.353Z,24.77
2018-11-20T07:47:54.367Z,26.87
2018-11-20T07:50:43.281Z,25.33
2018-11-20T07:53:32.154Z,25.63
2018-11-20T07:56:20.790Z,23.67
2018-11-20T07:59:09.250Z,21.80
2018-11-20T08:01:57.841Z,23.33
2018-11-20T08:04:41.406Z,23.97
2018-11-20T08:07:27.215Z,23.33
2018-11-20T08:10:08.717Z,24.57
2018-11-20T08:12:57.352Z,26.37
2018-11-20T08:15:34.824Z,25.10
2018-11-20T08:18:15.104Z,27.03
2018-11-20T08:20:50.855Z,27.63
2018-11-20T08:23:39.400Z,23.10
2018-11-20T08:26:28.370Z,25.87
2018-11-20T08:29:12.818Z,32.27
2018-11-20T08:31:51.375Z,29.63
2018-11-20T08:34:29.342Z,25.50
2018-11-20T08:37:17.901Z,25.70
2018-11-20T08:40:06.549Z,21.27
2018-11-20T08:42:55.503Z,21.13
2018-11-20T08:45:43.950Z,18.83
2018-11-20T08:48:32.423Z,24.73
2018-11-20T08:51:20.960Z,20.90
2018-11-20T08:54:09.816Z,19.33
2018-11-20T08:56:58.770Z,23.43
2018-11-20T08:59:47.321Z,22.57
2018-11-20T09:02:28.073Z,59.57
2018-11-20T09:05:16.337Z,22.30
2018-11-20T09:08:05.190Z,21.03
2018-11-20T09:10:53.744Z,20.40
2018-11-20T09:13:42.601Z,20.13
2018-11-20T09:16:27.261Z,18.40
2018-11-20T09:19:15.810Z,17.50
2018-11-20T09:22:04.464Z,19.63
2018-11-20T09:24:51.686Z,20.47
2018-11-20T09:27:35.839Z,21.23
2018-11-20T09:30:24.691Z,20.17
2018-11-20T09:33:03.000Z,21.77
2018-11-20T09:35:51.657Z,19.83
2018-11-20T09:38:40.370Z,22.20
2018-11-20T09:41:29.270Z,20.67
2018-11-20T09:44:23.756Z,21.37
2018-11-20T09:47:12.463Z,22.57
2018-11-20T09:50:00.862Z,20.20
2018-11-20T09:52:49.829Z,29.60
2018-11-20T09:55:38.575Z,21.27
2018-11-20T09:58:26.203Z,19.40
2018-11-20T10:01:08.922Z,19.70
2018-11-20T10:03:57.879Z,21.83
2018-11-20T10:06:46.286Z,20.30
2018-11-20T10:09:35.184Z,22.60
2018-11-20T10:12:21.907Z,22.87
2018-11-20T10:15:08.299Z,23.70
2018-11-20T10:17:56.746Z,22.47
2018-11-20T10:20:46.144Z,19.20
2018-11-20T10:23:35.592Z,18.70
2018-11-20T10:26:24.764Z,19.87
2018-11-20T10:29:13.402Z,18.67
2018-11-20T10:32:03.491Z,24.07
2018-11-20T10:34:52.290Z,19.50
2018-11-20T10:37:41.106Z,17.77
2018-11-20T10:40:29.583Z,20.57
2018-11-20T10:43:18.310Z,23.47
2018-11-20T10:46:07.104Z,21.00
2018-11-20T10:48:55.727Z,18.73
2018-11-20T10:51:40.284Z,20.53
2018-11-20T10:54:19.612Z,21.90
2018-11-20T10:57:08.672Z,20.03
2018-11-20T10:59:57.421Z,25.60
2018-11-20T11:02:46.086Z,25.70
2018-11-20T11:05:41.188Z,23.10
2018-11-20T11:08:29.736Z,26.63
2018-11-20T11:11:06.106Z,21.00
2018-11-20T11:13:54.757Z,23.93
2018-11-20T11:16:43.618Z,23.10
2018-11-20T11:19:32.357Z,22.90
2018-11-20T11:22:21.128Z,23.27
2018-11-20T11:25:08.146Z,23.40
2018-11-20T11:27:56.797Z,21.40
2018-11-20T11:30:45.392Z,22.77
2018-11-20T11:33:34.307Z,22.27
2018-11-20T11:36:22.869Z,26.30
2018-11-20T11:39:02.806Z,21.20
2018-11-20T11:41:51.257Z,24.77
2018-11-20T11:44:40.118Z,19.93
2018-11-20T11:47:28.674Z,25.83
2018-11-20T11:50:17.317Z,24.77
2018-11-20T11:52:55.631Z,25.93
2018-11-20T11:55:44.694Z,21.13
2018-11-20T11:58:33.398Z,20.27
2018-11-20T12:01:22.387Z,24.93
2018-11-20T12:04:10.757Z,23.13
2018-11-20T12:06:59.713Z,21.90
2018-11-20T12:09:48.578Z,22.77
2018-11-20T12:12:37.739Z,23.90
2018-11-20T12:15:20.557Z,22.57
2018-11-20T12:18:09.207Z,24.50
2018-11-20T12:20:58.273Z,23.27
2018-11-20T12:23:46.828Z,24.97
2018-11-20T12:26:35.477Z,25.10
2018-11-20T12:29:24.442Z,22.53
2018-11-20T12:32:13.098Z,24.70
2018-11-20T12:35:01.750Z,27.80
2018-11-20T12:37:50.297Z,24.37
2018-11-20T12:40:39.353Z,24.50
2018-11-20T12:43:27.807Z,21.47
2018-11-20T12:46:16.357Z,23.80
2018-11-20T12:49:06.925Z,23.27
2018-11-20T12:51:54.358Z,23.17
2018-11-20T12:54:42.729Z,41.07
2018-11-20T12:57:26.261Z,30.00
2018-11-20T13:00:15.118Z,24.10
2018-11-20T13:03:03.778Z,27.37
2018-11-20T13:05:52.733Z,24.17
2018-11-20T13:08:41.488Z,24.53
2018-11-20T13:11:30.655Z,31.43
2018-11-20T13:14:11.320Z,26.97
2018-11-20T13:16:59.866Z,24.87
2018-11-20T13:19:47.087Z,26.77
2018-11-20T13:22:37.420Z,26.10
2018-11-20T13:25:24.605Z,27.70
2018-11-20T13:28:13.576Z,29.67
2018-11-20T13:31:02.363Z,28.40
2018-11-20T13:33:51.079Z,24.87
2018-11-20T13:36:36.417Z,22.67
2018-11-20T13:39:26.331Z,24.87
2018-11-20T13:42:16.826Z,25.33
2018-11-20T13:45:07.126Z,27.10
2018-11-20T13:47:55.984Z,28.03
2018-11-20T13:50:44.938Z,29.23
2018-11-20T13:53:33.357Z,25.03
2018-11-20T13:56:21.733Z,51.77
2018-11-20T13:59:10.485Z,31.33
2018-11-20T14:01:59.172Z,22.67
2018-11-20T14:04:48.304Z,25.50
2018-11-20T14:07:37.167Z,25.00
2018-11-20T14:10:27.359Z,25.73
2018-11-20T14:13:16.638Z,24.20
2018-11-20T14:16:01.304Z,28.40
2018-11-20T14:18:53.942Z,29.30
2018-11-20T14:21:44.125Z,24.83
2018-11-20T14:24:33.912Z,27.07
2018-11-20T14:27:24.720Z,23.87
2018-11-20T14:30:14.358Z,27.53
2018-11-20T14:33:00.692Z,25.20
2018-11-20T14:35:49.389Z,29.27
2018-11-20T14:38:38.294Z,23.23
2018-11-20T14:41:27.561Z,23.53
2018-11-20T14:44:16.408Z,31.47
2018-11-20T14:47:05.808Z,28.67
2018-11-20T14:49:54.399Z,29.97
2018-11-20T14:52:43.697Z,27.67
2018-11-20T14:55:32.260Z,30.37
2018-11-20T14:58:15.181Z,26.80
2018-11-20T15:01:04.652Z,25.50
2018-11-20T15:03:52.374Z,27.77
2018-11-20T15:06:41.245Z,29.63
2018-11-20T15:09:29.808Z,24.57
2018-11-20T15:12:18.961Z,26.77
2018-11-20T15:15:08.738Z,23.67
2018-11-20T15:18:00.266Z,33.10
2018-11-20T15:20:53.317Z,28.37
2018-11-20T15:23:41.967Z,26.40
2018-11-20T15:26:31.689Z,26.67
2018-11-20T15:29:20.832Z,26.17
2018-11-20T15:32:09.801Z,28.63
2018-11-20T15:34:58.239Z,24.20
2018-11-20T15:37:35.712Z,38.50
2018-11-20T15:40:25.085Z,44.03
2018-11-20T15:43:12.093Z,34.00
2018-11-20T15:46:01.580Z,31.43
2018-11-20T15:48:50.537Z,31.70
2018-11-20T15:51:39.181Z,29.00
2018-11-20T15:54:27.937Z,23.37
2018-11-20T15:57:16.488Z,24.93
2018-11-20T16:00:05.142Z,25.87
2018-11-20T16:02:51.039Z,31.27
2018-11-20T16:05:57.120Z,28.70
2018-11-20T16:08:37.566Z,23.67
2018-11-20T16:11:33.924Z,24.97
2018-11-20T16:14:22.332Z,31.83
2018-11-20T16:17:16.821Z,32.73
2018-11-20T16:20:04.780Z,35.93
2018-11-20T16:22:52.358Z,32.30
2018-11-20T16:25:41.146Z,36.83
2018-11-20T16:28:29.802Z,27.90
2018-11-20T16:31:18.353Z,29.77
2018-11-20T16:34:07.010Z,29.70
2018-11-20T16:36:55.458Z,31.20
2018-11-20T16:39:44.120Z,28.70
2018-11-20T16:42:32.566Z,31.43
2018-11-20T16:45:13.418Z,30.13
2018-11-20T16:48:02.081Z,36.00
2018-11-20T16:50:48.796Z,30.73
2018-11-20T16:53:37.241Z,31.83
2018-11-20T16:56:25.784Z,25.10
2018-11-20T16:59:14.247Z,30.20
2018-11-20T17:02:02.787Z,28.57
2018-11-20T17:04:46.430Z,33.43
2018-11-20T17:07:35.276Z,34.23
2018-11-20T17:10:26.351Z,35.60
2018-11-20T17:13:15.768Z,37.97
2018-11-20T17:16:07.599Z,43.93
2018-11-20T17:18:56.959Z,39.23
2018-11-20T17:21:45.826Z,40.30
2018-11-20T17:24:35.814Z,32.33
2018-11-20T17:27:25.173Z,35.40
2018-11-20T17:30:14.546Z,35.30
2018-11-20T17:33:03.714Z,40.37
2018-11-20T17:35:31.776Z,48.33
2018-11-20T17:38:20.224Z,35.07
2018-11-20T17:41:09.708Z,38.97
2018-11-20T17:43:59.177Z,41.90
2018-11-20T17:46:43.384Z,31.07
2018-11-20T17:49:27.873Z,40.80
2018-11-20T17:52:10.811Z,35.23
2018-11-20T17:55:01.294Z,40.03
2018-11-20T17:57:53.364Z,39.40
2018-11-20T18:00:41.613Z,36.67
2018-11-20T18:03:28.500Z,44.13
2018-11-20T18:06:08.766Z,37.30
2018-11-20T18:09:00.284Z,41.97
2018-11-20T18:11:49.843Z,33.43
2018-11-20T18:14:42.708Z,38.93
2018-11-20T18:17:27.756Z,37.60
2018-11-20T18:20:16.843Z,35.57
2018-11-20T18:26:28.942Z,35.50
2018-11-20T18:29:17.931Z,35.83
2018-11-20T18:32:06.691Z,45.07
2018-11-20T18:34:52.756Z,42.27
2018-11-20T18:37:42.084Z,37.57
2018-11-20T18:40:31.173Z,40.10
2018-11-20T18:46:35.379Z,44.67
2018-11-20T18:49:24.811Z,48.03
2018-11-20T18:52:14.364Z,52.67
2018-11-20T18:55:03.942Z,48.70
2018-11-20T18:57:58.044Z,46.70
2018-11-20T19:04:10.164Z,42.50
2018-11-20T19:07:21.132Z,46.13
2018-11-20T19:10:10.917Z,42.63
2018-11-20T19:12:59.771Z,47.07
2018-11-20T19:16:01.844Z,52.27
2018-11-20T19:18:43.727Z,51.83
2018-11-20T19:22:01.465Z,57.07
2018-11-20T19:28:21.262Z,40.93
2018-11-20T19:34:04.624Z,34.27
2018-11-20T19:36:56.771Z,39.97
2018-11-20T19:39:46.649Z,46.27
2018-11-20T19:45:58.048Z,50.03
2018-11-20T19:52:08.924Z,53.87
2018-11-20T19:54:58.404Z,49.60
2018-11-20T19:57:48.826Z,55.73
2018-11-20T20:00:37.676Z,60.23
2018-11-20T20:03:26.614Z,64.93
2018-11-20T20:09:27.804Z,65.90
2018-11-20T20:12:16.372Z,57.90
2018-11-20T20:15:05.736Z,50.63
2018-11-20T20:17:54.368Z,44.13
2018-11-20T20:20:43.621Z,43.07
2018-11-20T20:23:32.788Z,42.30
2018-11-20T20:26:21.852Z,46.47
2018-11-20T20:29:12.244Z,48.60
2018-11-20T20:32:01.396Z,44.13
2018-11-20T20:35:01.125Z,50.67
2018-11-20T20:37:50.899Z,42.93
2018-11-20T20:40:49.374Z,43.33
2018-11-20T20:43:50.372Z,46.23
2018-11-20T20:46:42.683Z,45.87
2018-11-20T20:50:07.180Z,46.70
2018-11-20T20:52:58.892Z,43.83
2018-11-20T20:55:53.372Z,52.67
2018-11-20T20:58:42.365Z,48.60
2018-11-20T21:07:48.844Z,48.97
2018-11-20T21:10:38.323Z,49.00
2018-11-20T21:13:29.044Z,45.00
2018-11-20T21:19:32.865Z,41.27
2018-11-20T21:22:25.577Z,45.93
2018-11-20T21:25:28.791Z,43.03
2018-11-20T21:28:21.232Z,40.97
2018-11-20T21:31:10.813Z,40.90
2018-11-20T21:34:06.851Z,39.37
2018-11-20T21:40:15.914Z,54.23
2018-11-20T21:43:05.432Z,50.37
2018-11-20T21:49:07.426Z,42.33
2018-11-20T21:51:57.243Z,42.50
2018-11-20T21:54:48.035Z,41.27
2018-11-20T21:57:35.680Z,43.70
2018-11-20T22:00:29.744Z,46.53
2018-11-20T22:03:19.628Z,51.90
2018-11-20T22:12:46.828Z,36.40
2018-11-20T22:15:35.765Z,40.67
2018-11-20T22:18:25.373Z,39.87
2018-11-20T22:21:06.723Z,33.47
2018-11-20T22:23:59.500Z,37.80
2018-11-20T22:30:02.820Z,39.83
2018-11-20T22:33:08.721Z,38.47
2018-11-20T22:38:53.412Z,34.27
2018-11-20T22:41:41.884Z,35.30
2018-11-20T22:47:43.975Z,38.80
2018-11-20T22:50:26.492Z,36.63
2018-11-20T22:53:13.811Z,38.93
2018-11-20T22:56:02.393Z,38.33
2018-11-20T22:58:50.796Z,38.90
2018-11-20T23:01:39.962Z,37.80
2018-11-20T23:07:39.997Z,39.13
2018-11-20T23:10:10.368Z,38.63
2018-11-20T23:12:40.748Z,36.00
2018-11-20T23:15:12.712Z,34.40
2018-11-20T23:17:42.728Z,35.50
2018-11-20T23:20:13.463Z,35.57
2018-11-20T23:22:43.786Z,32.40
2018-11-20T23:28:27.547Z,33.27
2018-11-20T23:34:19.798Z,33.23
2018-11-20T23:36:52.068Z,36.23
2018-11-20T23:39:22.711Z,31.63
2018-11-20T23:41:53.234Z,36.73
2018-11-20T23:44:24.681Z,33.10
2018-11-20T23:46:55.621Z,34.20
2018-11-20T23:49:25.944Z,37.33
2018-11-20T23:51:56.164Z,35.17
2018-11-20T23:54:26.377Z,31.73
2018-11-20T23:56:57.733Z,29.77
2018-11-20T23:59:32.967Z,29.83
